createdAt,value
2018-09-29T00:01:58.847Z,16.10
2018-09-29T00:07:02.438Z,16.10
2018-09-29T00:12:06.029Z,16.20
2018-09-29T00:17:09.697Z,16.20
2018-09-29T00:22:13.572Z,16.20
2018-09-29T00:27:17.393Z,16.20
2018-09-29T00:32:20.968Z,16.10
2018-09-29T00:37:30.402Z,15.90
2018-09-29T00:42:33.974Z,15.90
2018-09-29T00:47:37.542Z,15.60
2018-09-29T00:52:41.148Z,15.60
2018-09-29T00:57:44.743Z,15.70
2018-09-29T01:02:48.567Z,15.70
2018-09-29T01:07:52.183Z,15.70
2018-09-29T01:12:55.763Z,15.70
2018-09-29T01:17:59.647Z,15.50
2018-09-29T01:23:03.210Z,15.40
2018-09-29T01:28:06.799Z,15.20
2018-09-29T01:33:11.165Z,15.10
2018-09-29T01:38:14.733Z,15.00
2018-09-29T01:43:18.293Z,14.90
2018-09-29T01:48:21.849Z,14.90
2018-09-29T01:53:25.430Z,14.70
2018-09-29T01:58:29.367Z,14.60
2018-09-29T02:03:32.941Z,14.50
2018-09-29T02:08:36.636Z,14.50
2018-09-29T02:13:40.255Z,14.50
2018-09-29T02:18:43.876Z,14.60
2018-09-29T02:23:47.889Z,14.60
2018-09-29T02:33:54.749Z,14.40
2018-09-29T02:38:58.350Z,14.40
2018-09-29T02:44:02.353Z,14.40
2018-09-29T02:49:05.939Z,14.30
2018-09-29T02:54:09.551Z,14.30
2018-09-29T02:59:13.116Z,14.00
2018-09-29T03:04:16.670Z,13.90
2018-09-29T03:14:23.492Z,13.70
2018-09-29T03:19:27.652Z,13.70
2018-09-29T03:24:31.464Z,13.60
2018-09-29T03:29:35.037Z,13.60
2018-09-29T03:34:38.802Z,13.60
2018-09-29T03:39:42.351Z,13.40
2018-09-29T03:44:46.530Z,13.40
2018-09-29T03:49:50.079Z,13.50
2018-09-29T03:59:58.531Z,13.40
2018-09-29T04:05:02.179Z,13.40
2018-09-29T04:10:05.987Z,13.20
2018-09-29T04:15:09.658Z,13.20
2018-09-29T04:20:13.216Z,13.20
2018-09-29T04:25:16.743Z,13.10
2018-09-29T04:30:20.284Z,13.20
2018-09-29T04:35:24.543Z,12.90
2018-09-29T04:40:28.673Z,12.90
2018-09-29T04:45:32.262Z,13.00
2018-09-29T04:50:35.852Z,13.00
2018-09-29T04:55:39.463Z,12.70
2018-09-29T05:00:43.986Z,12.70
2018-09-29T05:10:50.819Z,12.20
2018-09-29T05:15:54.515Z,12.20
2018-09-29T05:20:58.106Z,12.20
2018-09-29T05:26:01.675Z,12.30
2018-09-29T05:31:05.259Z,12.30
2018-09-29T05:36:08.821Z,12.40
2018-09-29T05:41:12.384Z,12.30
2018-09-29T05:46:16.255Z,12.40
2018-09-29T05:51:19.846Z,12.40
2018-09-29T05:56:23.602Z,12.40
2018-09-29T06:06:32.503Z,12.60
2018-09-29T06:11:36.249Z,12.60
2018-09-29T06:16:40.272Z,12.60
2018-09-29T06:21:43.852Z,12.60
2018-09-29T06:26:47.575Z,12.70
2018-09-29T06:31:51.111Z,12.50
2018-09-29T06:36:55.081Z,12.50
2018-09-29T06:41:58.701Z,12.50
2018-09-29T06:47:02.246Z,12.50
2018-09-29T06:52:05.890Z,12.30
2018-09-29T06:57:09.443Z,12.40
2018-09-29T07:02:13.015Z,12.60
2018-09-29T07:07:16.555Z,12.70
2018-09-29T07:12:20.099Z,12.70
2018-09-29T07:17:23.668Z,12.70
2018-09-29T07:22:27.288Z,12.80
2018-09-29T07:27:31.183Z,12.70
2018-09-29T07:32:35.263Z,12.80
2018-09-29T07:37:38.815Z,12.90
2018-09-29T07:42:42.408Z,13.10
2018-09-29T07:47:45.963Z,13.10
2018-09-29T07:52:49.519Z,13.00
2018-09-29T07:57:53.067Z,13.00
2018-09-29T08:02:56.696Z,13.20
2018-09-29T08:08:00.264Z,13.90
2018-09-29T08:13:03.902Z,14.00
2018-09-29T08:18:07.569Z,13.80
2018-09-29T08:23:11.126Z,14.10
2018-09-29T08:28:14.676Z,14.20
2018-09-29T08:33:19.115Z,14.30
2018-09-29T08:38:22.722Z,14.60
2018-09-29T08:43:26.275Z,14.70
2018-09-29T08:48:29.850Z,15.50
2018-09-29T08:53:33.489Z,16.50
2018-09-29T08:58:37.295Z,19.10
2018-09-29T09:03:41.230Z,21.40
2018-09-29T09:08:44.807Z,23.50
2018-09-29T09:13:48.435Z,23.90
2018-09-29T09:18:52.107Z,24.90
2018-09-29T09:23:55.726Z,25.20
2018-09-29T09:28:59.969Z,24.80
2018-09-29T09:34:03.536Z,24.70
2018-09-29T09:39:09.392Z,24.60
2018-09-29T09:44:13.019Z,23.60
2018-09-29T09:49:16.591Z,23.90
2018-09-29T09:54:22.787Z,23.20
2018-09-29T09:59:26.437Z,22.50
2018-09-29T10:04:30.099Z,20.30
2018-09-29T10:09:34.115Z,20.30
2018-09-29T10:14:37.880Z,20.20
2018-09-29T10:19:41.872Z,20.30
2018-09-29T10:24:46.068Z,19.90
2018-09-29T10:29:49.677Z,20.10
2018-09-29T10:34:53.259Z,20.20
2018-09-29T10:39:56.811Z,20.30
2018-09-29T10:45:00.371Z,20.10
2018-09-29T10:50:03.980Z,19.80
2018-09-29T10:55:07.566Z,20.40
2018-09-29T11:00:11.566Z,20.70
2018-09-29T11:05:15.375Z,20.50
2018-09-29T11:10:18.959Z,20.80
2018-09-29T11:15:22.602Z,21.10
2018-09-29T11:20:26.446Z,21.20
2018-09-29T11:25:30.108Z,20.70
2018-09-29T11:30:34.566Z,20.80
2018-09-29T11:35:38.399Z,21.30
2018-09-29T11:40:42.009Z,21.30
2018-09-29T11:45:46.055Z,21.60
2018-09-29T11:50:50.093Z,22.00
2018-09-29T11:55:53.741Z,21.80
2018-09-29T12:00:57.446Z,21.50
2018-09-29T12:06:01.137Z,21.80
2018-09-29T12:11:06.532Z,22.20
2018-09-29T12:16:10.128Z,22.60
2018-09-29T12:21:13.965Z,22.20
2018-09-29T12:26:18.151Z,22.30
2018-09-29T12:31:22.085Z,22.70
2018-09-29T12:36:25.630Z,23.10
2018-09-29T12:41:29.190Z,23.00
2018-09-29T12:46:33.127Z,23.00
2018-09-29T12:51:36.989Z,23.40
2018-09-29T12:56:40.502Z,23.80
2018-09-29T13:01:44.480Z,23.70
2018-09-29T13:06:48.354Z,24.20
2018-09-29T13:11:51.937Z,24.20
2018-09-29T13:16:55.821Z,24.30
2018-09-29T13:21:59.372Z,24.20
2018-09-29T13:27:03.880Z,24.20
2018-09-29T13:32:07.456Z,24.20
2018-09-29T13:37:21.474Z,24.10
2018-09-29T13:42:25.046Z,24.10
2018-09-29T13:47:28.939Z,24.40
2018-09-29T13:52:33.149Z,25.00
2018-09-29T13:57:37.031Z,25.40
2018-09-29T14:02:40.583Z,25.30
2018-09-29T14:07:44.175Z,25.50
2018-09-29T14:12:54.531Z,24.80
2018-09-29T14:17:58.121Z,25.00
2018-09-29T14:23:01.719Z,25.40
2018-09-29T14:28:05.998Z,25.40
2018-09-29T14:33:13.269Z,25.40
2018-09-29T14:38:16.840Z,25.20
2018-09-29T14:43:20.429Z,25.30
2018-09-29T14:48:24.004Z,25.20
2018-09-29T14:53:29.575Z,25.30
2018-09-29T14:58:33.130Z,25.60
2018-09-29T15:03:36.856Z,25.80
2018-09-29T15:08:42.448Z,25.30
2018-09-29T15:13:46.055Z,24.80
2018-09-29T15:18:49.601Z,24.60
2018-09-29T15:23:53.192Z,24.50
2018-09-29T15:28:56.744Z,24.30
2018-09-29T15:34:00.310Z,24.00
2018-09-29T15:39:05.536Z,23.90
2018-09-29T15:44:09.913Z,23.90
2018-09-29T15:49:13.535Z,23.20
2018-09-29T15:54:18.804Z,23.00
2018-09-29T15:59:22.589Z,22.90
2018-09-29T16:04:26.735Z,22.60
2018-09-29T16:09:30.319Z,22.20
2018-09-29T16:14:33.908Z,21.70
2018-09-29T16:19:37.488Z,21.50
2018-09-29T16:24:41.199Z,21.30
2018-09-29T16:29:44.758Z,21.10
2018-09-29T16:34:48.528Z,21.00
2018-09-29T16:39:52.109Z,20.70
2018-09-29T16:44:57.082Z,20.50
2018-09-29T16:50:00.724Z,20.60
2018-09-29T16:55:04.360Z,20.40
2018-09-29T17:00:08.195Z,19.90
2018-09-29T17:05:12.413Z,19.70
2018-09-29T17:10:16.004Z,19.20
2018-09-29T17:15:19.912Z,19.30
2018-09-29T17:20:23.447Z,19.20
2018-09-29T17:25:27.023Z,18.90
2018-09-29T17:30:30.570Z,18.80
2018-09-29T17:35:34.166Z,18.80
2018-09-29T17:40:37.735Z,18.70
2018-09-29T17:45:43.014Z,18.60
2018-09-29T17:50:46.639Z,18.50
2018-09-29T17:55:50.466Z,18.30
2018-09-29T18:00:54.051Z,18.30
2018-09-29T18:05:57.701Z,18.40
2018-09-29T18:11:01.282Z,18.30
2018-09-29T18:16:05.076Z,18.10
2018-09-29T18:26:11.998Z,17.80
2018-09-29T18:31:15.580Z,17.80
2018-09-29T18:36:19.153Z,17.70
2018-09-29T18:41:22.706Z,17.40
2018-09-29T18:46:26.264Z,17.50
2018-09-29T18:51:29.855Z,17.40
2018-09-29T18:56:33.413Z,17.40
2018-09-29T19:01:37.062Z,17.40
2018-09-29T19:06:40.620Z,17.30
2018-09-29T19:11:45.028Z,17.10
2018-09-29T19:16:48.772Z,17.00
2018-09-29T19:21:52.347Z,17.00
2018-09-29T19:26:55.960Z,17.00
2018-09-29T19:31:59.528Z,17.00
2018-09-29T19:42:15.734Z,16.70
2018-09-29T19:47:19.565Z,16.60
2018-09-29T19:52:23.859Z,16.30
2018-09-29T19:57:27.466Z,16.30
2018-09-29T20:07:34.739Z,16.10
2018-09-29T20:12:38.868Z,16.10
2018-09-29T20:17:42.698Z,16.10
2018-09-29T20:22:46.588Z,16.10
2018-09-29T20:32:53.503Z,16.00
2018-09-29T20:37:58.916Z,15.80
2018-09-29T20:43:02.535Z,15.90
2018-09-29T20:48:06.183Z,15.70
2018-09-29T20:53:09.741Z,15.50
2018-09-29T20:58:13.335Z,15.50
2018-09-29T21:08:22.643Z,15.50
2018-09-29T21:13:27.111Z,15.40
2018-09-29T21:18:40.709Z,15.30
2018-09-29T21:24:00.513Z,15.20
2018-09-29T21:29:04.204Z,15.10
2018-09-29T21:34:08.337Z,15.00
2018-09-29T21:39:11.949Z,15.00
2018-09-29T21:49:19.423Z,14.80
2018-09-29T21:54:23.051Z,14.70
2018-09-29T21:59:26.896Z,14.70
2018-09-29T22:04:30.917Z,14.50
2018-09-29T22:09:34.537Z,14.30
2018-09-29T22:14:38.135Z,14.30
2018-09-29T22:19:41.719Z,14.30
2018-09-29T22:29:49.094Z,14.20
2018-09-29T22:39:56.997Z,14.10
2018-09-29T22:45:00.572Z,14.00
2018-09-29T22:50:04.188Z,13.90
2018-09-29T22:55:07.815Z,13.80
2018-09-29T23:00:12.357Z,13.60
2018-09-29T23:05:15.971Z,13.60
2018-09-29T23:10:19.589Z,13.60
2018-09-29T23:15:23.236Z,13.50
2018-09-29T23:20:26.825Z,13.40
2018-09-29T23:25:30.396Z,13.40
2018-09-29T23:30:33.997Z,13.20
2018-09-29T23:35:37.717Z,13.20
2018-09-29T23:40:41.311Z,13.20
2018-09-29T23:45:45.234Z,13.10
2018-09-29T23:50:48.841Z,12.90
